sensor_id;sensor_type;location;lat;lon;timestamp;pressure;altitude;pressure_sealevel;temperature;humidity
10474;BME280;5284;50.446;7.904;2023-07-24T00:03:35;97624.50;;;16.44;100.00
10474;BME280;5284;50.446;7.904;2023-07-24T00:08:38;97623.03;;;16.42;100.00
10474;BME280;5284;50.446;7.904;2023-07-24T00:13:42;97623.81;;;16.36;100.00
10474;BME280;5284;50.446;7.904;2023-07-24T00:18:45;97630.53;;;16.32;100.00
10474;BME280;5284;50.446;7.904;2023-07-24T00:23:48;97630.09;;;16.28;100.00
10474;BME280;5284;50.446;7.904;2023-07-24T00:28:52;97622.94;;;16.21;100.00
10474;BME280;5284;50.446;7.904;2023-07-24T00:33:55;97602.00;;;16.16;100.00
10474;BME280;5284;50.446;7.904;2023-07-24T00:38:58;97609.88;;;16.18;100.00
10474;BME280;5284;50.446;7.904;2023-07-24T00:44:02;97611.06;;;16.15;100.00
10474;BME280;5284;50.446;7.904;2023-07-24T00:49:05;97613.97;;;16.14;100.00
10474;BME280;5284;50.446;7.904;2023-07-24T00:54:08;97593.56;;;16.05;100.00
10474;BME280;5284;50.446;7.904;2023-07-24T00:59:12;97600.69;;;16.12;100.00
10474;BME280;5284;50.446;7.904;2023-07-24T01:04:16;97584.09;;;16.09;100.00
10474;BME280;5284;50.446;7.904;2023-07-24T01:09:21;97595.28;;;16.12;100.00
10474;BME280;5284;50.446;7.904;2023-07-24T01:14:31;97577.31;;;16.13;100.00
10474;BME280;5284;50.446;7.904;2023-07-24T01:19:38;97574.88;;;16.18;100.00
10474;BME280;5284;50.446;7.904;2023-07-24T01:25:00;97576.81;;;16.24;100.00
10474;BME280;5284;50.446;7.904;2023-07-24T01:30:06;97566.69;;;16.26;100.00
10474;BME280;5284;50.446;7.904;2023-07-24T01:35:09;97562.97;;;16.27;100.00
10474;BME280;5284;50.446;7.904;2023-07-24T01:40:12;97557.44;;;16.28;100.00
10474;BME280;5284;50.446;7.904;2023-07-24T01:45:17;97532.34;;;16.28;100.00
10474;BME280;5284;50.446;7.904;2023-07-24T01:50:21;97540.44;;;16.28;100.00
10474;BME280;5284;50.446;7.904;2023-07-24T01:55:24;97541.06;;;16.30;100.00
10474;BME280;5284;50.446;7.904;2023-07-24T02:00:28;97526.81;;;16.29;100.00
10474;BME280;5284;50.446;7.904;2023-07-24T02:05:34;97532.19;;;16.29;100.00
10474;BME280;5284;50.446;7.904;2023-07-24T02:10:37;97527.63;;;16.30;100.00
10474;BME280;5284;50.446;7.904;2023-07-24T02:15:41;97534.66;;;16.31;100.00
10474;BME280;5284;50.446;7.904;2023-07-24T02:20:49;97538.22;;;16.31;100.00
10474;BME280;5284;50.446;7.904;2023-07-24T02:25:52;97533.22;;;16.28;100.00
10474;BME280;5284;50.446;7.904;2023-07-24T02:30:56;97530.91;;;16.25;100.00
10474;BME280;5284;50.446;7.904;2023-07-24T02:36:00;97527.38;;;16.25;100.00
10474;BME280;5284;50.446;7.904;2023-07-24T02:41:03;97532.09;;;16.23;100.00
10474;BME280;5284;50.446;7.904;2023-07-24T02:46:07;97529.41;;;16.23;100.00
10474;BME280;5284;50.446;7.904;2023-07-24T02:51:10;97513.53;;;16.28;100.00
10474;BME280;5284;50.446;7.904;2023-07-24T02:56:13;97517.44;;;16.25;100.00
10474;BME280;5284;50.446;7.904;2023-07-24T03:01:18;97520.78;;;16.27;100.00
10474;BME280;5284;50.446;7.904;2023-07-24T03:06:21;97504.44;;;16.29;100.00
10474;BME280;5284;50.446;7.904;2023-07-24T03:11:24;97473.38;;;16.26;100.00
10474;BME280;5284;50.446;7.904;2023-07-24T03:16:28;97464.66;;;16.24;100.00
10474;BME280;5284;50.446;7.904;2023-07-24T03:21:32;97468.94;;;16.19;100.00
10474;BME280;5284;50.446;7.904;2023-07-24T03:26:35;97462.09;;;16.16;100.00
10474;BME280;5284;50.446;7.904;2023-07-24T03:31:39;97444.47;;;16.14;100.00
10474;BME280;5284;50.446;7.904;2023-07-24T03:36:42;97431.19;;;16.12;100.00
10474;BME280;5284;50.446;7.904;2023-07-24T03:41:45;97438.00;;;16.08;100.00
10474;BME280;5284;50.446;7.904;2023-07-24T03:46:49;97438.75;;;16.02;100.00
10474;BME280;5284;50.446;7.904;2023-07-24T03:51:52;97434.31;;;15.95;100.00
10474;BME280;5284;50.446;7.904;2023-07-24T03:56:55;97423.06;;;15.85;100.00
10474;BME280;5284;50.446;7.904;2023-07-24T04:01:59;97422.53;;;15.75;100.00
10474;BME280;5284;50.446;7.904;2023-07-24T04:07:02;97412.56;;;15.69;100.00
10474;BME280;5284;50.446;7.904;2023-07-24T04:12:05;97407.22;;;15.75;100.00
10474;BME280;5284;50.446;7.904;2023-07-24T04:17:10;97411.84;;;15.81;100.00
10474;BME280;5284;50.446;7.904;2023-07-24T04:22:12;97420.69;;;15.96;100.00
10474;BME280;5284;50.446;7.904;2023-07-24T04:27:15;97423.00;;;15.99;100.00
10474;BME280;5284;50.446;7.904;2023-07-24T04:32:20;97424.75;;;16.07;100.00
10474;BME280;5284;50.446;7.904;2023-07-24T04:37:23;97437.03;;;16.16;100.00
10474;BME280;5284;50.446;7.904;2023-07-24T04:42:26;97435.06;;;16.24;100.00
10474;BME280;5284;50.446;7.904;2023-07-24T04:47:30;97431.38;;;16.32;100.00
10474;BME280;5284;50.446;7.904;2023-07-24T04:52:33;97439.81;;;16.43;100.00
10474;BME280;5284;50.446;7.904;2023-07-24T04:57:36;97448.41;;;16.53;100.00
10474;BME280;5284;50.446;7.904;2023-07-24T05:02:40;97459.59;;;16.57;100.00
10474;BME280;5284;50.446;7.904;2023-07-24T05:07:43;97471.25;;;16.64;100.00
10474;BME280;5284;50.446;7.904;2023-07-24T05:12:46;97482.66;;;16.87;100.00
10474;BME280;5284;50.446;7.904;2023-07-24T05:17:50;97486.97;;;17.08;100.00
10474;BME280;5284;50.446;7.904;2023-07-24T05:22:53;97468.41;;;17.26;100.00
10474;BME280;5284;50.446;7.904;2023-07-24T05:27:56;97451.75;;;17.44;100.00
10474;BME280;5284;50.446;7.904;2023-07-24T05:33:01;97461.19;;;17.61;100.00
10474;BME280;5284;50.446;7.904;2023-07-24T05:38:04;97456.31;;;17.90;100.00
10474;BME280;5284;50.446;7.904;2023-07-24T05:43:07;97467.16;;;18.10;100.00
10474;BME280;5284;50.446;7.904;2023-07-24T05:48:11;97447.25;;;18.17;100.00
10474;BME280;5284;50.446;7.904;2023-07-24T05:53:14;97451.25;;;18.34;100.00
10474;BME280;5284;50.446;7.904;2023-07-24T05:58:17;97447.16;;;18.51;100.00
10474;BME280;5284;50.446;7.904;2023-07-24T06:03:21;97450.06;;;18.62;100.00
10474;BME280;5284;50.446;7.904;2023-07-24T06:08:26;97438.44;;;18.75;100.00
10474;BME280;5284;50.446;7.904;2023-07-24T06:13:29;97432.41;;;18.73;100.00
10474;BME280;5284;50.446;7.904;2023-07-24T06:18:33;97433.03;;;18.94;100.00
10474;BME280;5284;50.446;7.904;2023-07-24T06:23:37;97427.16;;;19.04;100.00
10474;BME280;5284;50.446;7.904;2023-07-24T06:28:39;97437.59;;;19.20;100.00
10474;BME280;5284;50.446;7.904;2023-07-24T06:33:44;97431.94;;;19.28;100.00
10474;BME280;5284;50.446;7.904;2023-07-24T06:38:46;97415.47;;;19.49;100.00
10474;BME280;5284;50.446;7.904;2023-07-24T06:43:49;97419.94;;;19.74;100.00
10474;BME280;5284;50.446;7.904;2023-07-24T06:48:54;97415.22;;;20.07;100.00
10474;BME280;5284;50.446;7.904;2023-07-24T06:53:56;97406.34;;;20.24;100.00
10474;BME280;5284;50.446;7.904;2023-07-24T06:58:59;97395.25;;;20.32;100.00
10474;BME280;5284;50.446;7.904;2023-07-24T07:04:04;97404.56;;;20.43;100.00
10474;BME280;5284;50.446;7.904;2023-07-24T07:09:07;97404.81;;;20.35;100.00
10474;BME280;5284;50.446;7.904;2023-07-24T07:14:10;97416.88;;;20.39;100.00
10474;BME280;5284;50.446;7.904;2023-07-24T07:19:14;97409.81;;;20.38;100.00
10474;BME280;5284;50.446;7.904;2023-07-24T07:24:17;97411.97;;;20.23;100.00
10474;BME280;5284;50.446;7.904;2023-07-24T07:29:20;97394.56;;;20.13;100.00
10474;BME280;5284;50.446;7.904;2023-07-24T07:34:24;97391.72;;;20.01;98.95
10474;BME280;5284;50.446;7.904;2023-07-24T07:39:27;97397.31;;;20.06;100.00
10474;BME280;5284;50.446;7.904;2023-07-24T07:44:30;97400.66;;;20.02;100.00
10474;BME280;5284;50.446;7.904;2023-07-24T07:49:34;97416.94;;;19.89;100.00
10474;BME280;5284;50.446;7.904;2023-07-24T07:54:37;97412.00;;;19.73;100.00
10474;BME280;5284;50.446;7.904;2023-07-24T07:59:41;97408.94;;;19.63;100.00
10474;BME280;5284;50.446;7.904;2023-07-24T08:04:45;97424.56;;;19.61;100.00
10474;BME280;5284;50.446;7.904;2023-07-24T08:09:48;97415.47;;;19.49;100.00
10474;BME280;5284;50.446;7.904;2023-07-24T08:14:51;97417.53;;;19.47;100.00
10474;BME280;5284;50.446;7.904;2023-07-24T08:19:56;97415.75;;;19.78;100.00
10474;BME280;5284;50.446;7.904;2023-07-24T08:24:58;97394.50;;;20.19;100.00
10474;BME280;5284;50.446;7.904;2023-07-24T08:30:02;97390.50;;;20.83;100.00
10474;BME280;5284;50.446;7.904;2023-07-24T08:35:06;97393.19;;;21.26;100.00
10474;BME280;5284;50.446;7.904;2023-07-24T08:40:10;97404.81;;;21.51;98.10
10474;BME280;5284;50.446;7.904;2023-07-24T08:45:15;97407.06;;;21.54;98.11
10474;BME280;5284;50.446;7.904;2023-07-24T08:50:20;97393.13;;;21.68;93.94
10474;BME280;5284;50.446;7.904;2023-07-24T08:55:24;97393.75;;;21.52;95.28
10474;BME280;5284;50.446;7.904;2023-07-24T09:00:28;97390.78;;;21.36;94.79
10474;BME280;5284;50.446;7.904;2023-07-24T09:05:33;97371.41;;;21.68;92.76
10474;BME280;5284;50.446;7.904;2023-07-24T09:10:35;97386.91;;;21.97;91.30
10474;BME280;5284;50.446;7.904;2023-07-24T09:15:42;97374.44;;;21.78;89.60
10474;BME280;5284;50.446;7.904;2023-07-24T09:20:46;97380.59;;;22.14;88.24
10474;BME280;5284;50.446;7.904;2023-07-24T09:25:49;97349.94;;;22.66;86.29
10474;BME280;5284;50.446;7.904;2023-07-24T09:30:53;97337.97;;;23.02;82.70
10474;BME280;5284;50.446;7.904;2023-07-24T09:35:59;97328.34;;;24.12;79.17
10474;BME280;5284;50.446;7.904;2023-07-24T09:41:03;97321.66;;;23.64;76.23
10474;BME280;5284;50.446;7.904;2023-07-24T09:46:08;97323.75;;;24.13;73.67
10474;BME280;5284;50.446;7.904;2023-07-24T09:51:14;97317.34;;;23.91;71.87
10474;BME280;5284;50.446;7.904;2023-07-24T09:56:17;97313.16;;;23.60;73.83
10474;BME280;5284;50.446;7.904;2023-07-24T10:01:32;97319.00;;;23.80;72.11
10474;BME280;5284;50.446;7.904;2023-07-24T10:06:37;97318.75;;;23.54;73.67
10474;BME280;5284;50.446;7.904;2023-07-24T10:11:40;97319.47;;;23.77;73.93
10474;BME280;5284;50.446;7.904;2023-07-24T10:16:44;97317.09;;;23.53;71.11
10474;BME280;5284;50.446;7.904;2023-07-24T10:21:50;97311.13;;;24.23;69.98
10474;BME280;5284;50.446;7.904;2023-07-24T10:26:55;97314.72;;;24.12;69.96
10474;BME280;5284;50.446;7.904;2023-07-24T10:31:58;97300.59;;;25.14;66.60
10474;BME280;5284;50.446;7.904;2023-07-24T10:37:06;97288.59;;;25.15;65.17
10474;BME280;5284;50.446;7.904;2023-07-24T10:42:10;97309.06;;;25.98;60.72
10474;BME280;5284;50.446;7.904;2023-07-24T10:47:13;97298.47;;;25.80;61.62
10474;BME280;5284;50.446;7.904;2023-07-24T10:52:17;97309.84;;;25.29;59.49
10474;BME280;5284;50.446;7.904;2023-07-24T10:57:25;97303.44;;;25.19;58.56
10474;BME280;5284;50.446;7.904;2023-07-24T11:02:28;97303.69;;;25.39;55.87
10474;BME280;5284;50.446;7.904;2023-07-24T11:07:35;97294.19;;;25.20;55.96
10474;BME280;5284;50.446;7.904;2023-07-24T11:12:38;97281.50;;;24.60;59.00
10474;BME280;5284;50.446;7.904;2023-07-24T11:17:42;97283.31;;;24.87;61.69
10474;BME280;5284;50.446;7.904;2023-07-24T11:22:47;97279.69;;;25.62;59.97
10474;BME280;5284;50.446;7.904;2023-07-24T11:27:49;97274.66;;;26.55;55.48
10474;BME280;5284;50.446;7.904;2023-07-24T11:32:52;97248.59;;;26.16;55.82
10474;BME280;5284;50.446;7.904;2023-07-24T11:37:57;97231.47;;;27.03;53.22
10474;BME280;5284;50.446;7.904;2023-07-24T11:43:01;97234.97;;;26.99;53.25
10474;BME280;5284;50.446;7.904;2023-07-24T11:48:09;97228.66;;;26.88;54.15
10474;BME280;5284;50.446;7.904;2023-07-24T11:53:22;97227.34;;;25.97;56.05
10474;BME280;5284;50.446;7.904;2023-07-24T11:58:26;97212.19;;;25.84;57.05
10474;BME280;5284;50.446;7.904;2023-07-24T12:03:29;97207.84;;;25.88;56.75
10474;BME280;5284;50.446;7.904;2023-07-24T12:08:34;97190.91;;;26.49;55.75
10474;BME280;5284;50.446;7.904;2023-07-24T12:13:40;97170.47;;;25.94;55.82
10474;BME280;5284;50.446;7.904;2023-07-24T12:18:43;97165.41;;;25.54;56.16
10474;BME280;5284;50.446;7.904;2023-07-24T12:23:47;97163.25;;;25.56;56.02
10474;BME280;5284;50.446;7.904;2023-07-24T12:28:50;97157.00;;;25.13;58.35
10474;BME280;5284;50.446;7.904;2023-07-24T12:33:53;97178.72;;;24.27;64.29
10474;BME280;5284;50.446;7.904;2023-07-24T12:38:57;97183.84;;;23.91;71.32
10474;BME280;5284;50.446;7.904;2023-07-24T12:44:00;97180.34;;;23.34;80.01
10474;BME280;5284;50.446;7.904;2023-07-24T12:49:03;97173.06;;;22.73;85.36
10474;BME280;5284;50.446;7.904;2023-07-24T12:54:07;97178.31;;;22.17;88.49
10474;BME280;5284;50.446;7.904;2023-07-24T12:59:25;97228.78;;;21.54;98.34
10474;BME280;5284;50.446;7.904;2023-07-24T13:04:28;97240.41;;;20.60;100.00
10474;BME280;5284;50.446;7.904;2023-07-24T13:09:32;97244.81;;;20.72;100.00
10474;BME280;5284;50.446;7.904;2023-07-24T13:14:35;97240.34;;;23.28;100.00
10474;BME280;5284;50.446;7.904;2023-07-24T13:19:42;97233.75;;;21.86;100.00
10474;BME280;5284;50.446;7.904;2023-07-24T13:24:46;97214.91;;;24.23;100.00
10474;BME280;5284;50.446;7.904;2023-07-24T13:29:49;97205.22;;;23.54;100.00
10474;BME280;5284;50.446;7.904;2023-07-24T13:34:52;97201.53;;;25.61;100.00
10474;BME280;5284;50.446;7.904;2023-07-24T13:39:56;97197.38;;;25.54;100.00
10474;BME280;5284;50.446;7.904;2023-07-24T13:44:59;97193.41;;;24.43;99.71
10474;BME280;5284;50.446;7.904;2023-07-24T13:50:02;97171.34;;;24.44;97.94
10474;BME280;5284;50.446;7.904;2023-07-24T13:55:07;97158.91;;;28.17;76.21
10474;BME280;5284;50.446;7.904;2023-07-24T14:00:11;97148.50;;;30.76;67.52
10474;BME280;5284;50.446;7.904;2023-07-24T14:05:15;97151.72;;;28.71;67.78
10474;BME280;5284;50.446;7.904;2023-07-24T14:10:20;97138.34;;;29.28;59.39
10474;BME280;5284;50.446;7.904;2023-07-24T14:15:23;97138.34;;;26.98;72.98
10474;BME280;5284;50.446;7.904;2023-07-24T14:20:27;97129.78;;;25.39;83.38
10474;BME280;5284;50.446;7.904;2023-07-24T14:25:31;97135.84;;;24.23;89.44
10474;BME280;5284;50.446;7.904;2023-07-24T14:30:34;97137.72;;;27.43;72.64
10474;BME280;5284;50.446;7.904;2023-07-24T14:35:37;97137.50;;;27.74;75.24
10474;BME280;5284;50.446;7.904;2023-07-24T14:40:41;97124.91;;;31.95;57.27
10474;BME280;5284;50.446;7.904;2023-07-24T14:45:44;97104.34;;;32.20;56.09
10474;BME280;5284;50.446;7.904;2023-07-24T14:50:47;97114.84;;;33.84;46.35
10474;BME280;5284;50.446;7.904;2023-07-24T14:55:51;97117.00;;;34.84;46.30
10474;BME280;5284;50.446;7.904;2023-07-24T15:00:54;97112.47;;;34.35;43.97
10474;BME280;5284;50.446;7.904;2023-07-24T15:05:57;97120.38;;;36.68;41.25
10474;BME280;5284;50.446;7.904;2023-07-24T15:11:06;97130.00;;;34.53;42.92
10474;BME280;5284;50.446;7.904;2023-07-24T15:16:09;97112.63;;;29.95;49.21
10474;BME280;5284;50.446;7.904;2023-07-24T15:21:12;97117.69;;;27.47;51.67
10474;BME280;5284;50.446;7.904;2023-07-24T15:26:16;97111.41;;;26.75;54.29
10474;BME280;5284;50.446;7.904;2023-07-24T15:31:19;97114.31;;;25.81;58.55
10474;BME280;5284;50.446;7.904;2023-07-24T15:36:22;97111.91;;;26.21;56.03
10474;BME280;5284;50.446;7.904;2023-07-24T15:41:28;97133.31;;;24.92;61.91
10474;BME280;5284;50.446;7.904;2023-07-24T15:46:31;97164.53;;;23.92;70.15
10474;BME280;5284;50.446;7.904;2023-07-24T15:51:34;97157.28;;;22.98;76.83
10474;BME280;5284;50.446;7.904;2023-07-24T15:56:43;97160.31;;;22.27;80.58
10474;BME280;5284;50.446;7.904;2023-07-24T16:01:46;97178.28;;;21.94;83.23
10474;BME280;5284;50.446;7.904;2023-07-24T16:06:48;97176.75;;;22.09;82.48
10474;BME280;5284;50.446;7.904;2023-07-24T16:11:53;97184.06;;;22.09;83.94
10474;BME280;5284;50.446;7.904;2023-07-24T16:16:55;97188.09;;;22.52;80.15
10474;BME280;5284;50.446;7.904;2023-07-24T16:21:58;97185.16;;;22.42;81.03
10474;BME280;5284;50.446;7.904;2023-07-24T16:27:02;97188.97;;;22.92;79.59
10474;BME280;5284;50.446;7.904;2023-07-24T16:32:07;97191.63;;;27.32;60.63
10474;BME280;5284;50.446;7.904;2023-07-24T16:37:10;97191.94;;;24.02;72.06
10474;BME280;5284;50.446;7.904;2023-07-24T16:42:14;97191.22;;;22.95;78.26
10474;BME280;5284;50.446;7.904;2023-07-24T16:47:18;97204.03;;;22.26;77.32
10474;BME280;5284;50.446;7.904;2023-07-24T16:52:20;97207.47;;;22.21;78.61
10474;BME280;5284;50.446;7.904;2023-07-24T16:57:25;97212.88;;;21.98;78.29
10474;BME280;5284;50.446;7.904;2023-07-24T17:02:28;97214.63;;;21.93;78.60
10474;BME280;5284;50.446;7.904;2023-07-24T17:07:33;97233.25;;;21.67;74.87
10474;BME280;5284;50.446;7.904;2023-07-24T17:12:37;97228.66;;;21.49;73.70
10474;BME280;5284;50.446;7.904;2023-07-24T17:17:40;97221.59;;;21.48;72.27
10474;BME280;5284;50.446;7.904;2023-07-24T17:22:43;97225.31;;;21.36;69.86
10474;BME280;5284;50.446;7.904;2023-07-24T17:27:47;97248.75;;;21.30;68.31
10474;BME280;5284;50.446;7.904;2023-07-24T17:32:50;97250.78;;;21.17;69.33
10474;BME280;5284;50.446;7.904;2023-07-24T17:37:53;97262.47;;;20.99;70.72
10474;BME280;5284;50.446;7.904;2023-07-24T17:42:57;97269.22;;;20.97;70.69
10474;BME280;5284;50.446;7.904;2023-07-24T17:48:00;97269.34;;;21.67;67.42
10474;BME280;5284;50.446;7.904;2023-07-24T17:53:05;97288.94;;;21.69;67.22
10474;BME280;5284;50.446;7.904;2023-07-24T17:58:10;97281.63;;;21.52;68.30
10474;BME280;5284;50.446;7.904;2023-07-24T18:03:12;97286.97;;;21.11;70.17
10474;BME280;5284;50.446;7.904;2023-07-24T18:08:16;97294.81;;;21.01;71.81
10474;BME280;5284;50.446;7.904;2023-07-24T18:13:21;97293.22;;;21.11;72.25
10474;BME280;5284;50.446;7.904;2023-07-24T18:18:24;97284.63;;;21.14;72.85
10474;BME280;5284;50.446;7.904;2023-07-24T18:23:27;97288.69;;;21.23;72.73
10474;BME280;5284;50.446;7.904;2023-07-24T18:28:32;97289.75;;;21.22;72.78
10474;BME280;5284;50.446;7.904;2023-07-24T18:33:34;97282.66;;;21.03;74.31
10474;BME280;5284;50.446;7.904;2023-07-24T18:38:37;97292.69;;;20.85;73.50
10474;BME280;5284;50.446;7.904;2023-07-24T18:43:42;97296.41;;;20.66;73.39
10474;BME280;5284;50.446;7.904;2023-07-24T18:48:45;97302.22;;;20.45;71.53
10474;BME280;5284;50.446;7.904;2023-07-24T18:53:50;97312.63;;;20.23;71.72
10474;BME280;5284;50.446;7.904;2023-07-24T18:58:55;97318.78;;;20.00;72.62
10474;BME280;5284;50.446;7.904;2023-07-24T19:03:58;97316.47;;;19.79;72.68
10474;BME280;5284;50.446;7.904;2023-07-24T19:09:01;97327.41;;;19.59;72.76
10474;BME280;5284;50.446;7.904;2023-07-24T19:14:05;97342.25;;;19.37;74.30
10474;BME280;5284;50.446;7.904;2023-07-24T19:19:08;97351.25;;;19.18;75.30
10474;BME280;5284;50.446;7.904;2023-07-24T19:24:11;97355.44;;;19.08;76.36
10474;BME280;5284;50.446;7.904;2023-07-24T19:29:15;97368.59;;;18.91;77.33
10474;BME280;5284;50.446;7.904;2023-07-24T19:34:18;97372.13;;;18.79;78.66
10474;BME280;5284;50.446;7.904;2023-07-24T19:39:21;97378.56;;;18.71;79.11
10474;BME280;5284;50.446;7.904;2023-07-24T19:44:25;97396.44;;;18.66;79.86
10474;BME280;5284;50.446;7.904;2023-07-24T19:49:28;97394.81;;;18.58;80.78
10474;BME280;5284;50.446;7.904;2023-07-24T19:54:31;97398.13;;;18.54;81.30
10474;BME280;5284;50.446;7.904;2023-07-24T19:59:35;97403.31;;;18.49;82.10
10474;BME280;5284;50.446;7.904;2023-07-24T20:04:38;97411.84;;;18.46;82.15
10474;BME280;5284;50.446;7.904;2023-07-24T20:09:41;97425.94;;;18.35;84.88
10474;BME280;5284;50.446;7.904;2023-07-24T20:14:45;97442.69;;;18.11;93.03
10474;BME280;5284;50.446;7.904;2023-07-24T20:19:49;97444.91;;;17.88;98.83
10474;BME280;5284;50.446;7.904;2023-07-24T20:24:52;97450.41;;;17.67;100.00
10474;BME280;5284;50.446;7.904;2023-07-24T20:29:56;97457.22;;;17.57;100.00
10474;BME280;5284;50.446;7.904;2023-07-24T20:35:02;97462.53;;;17.37;100.00
10474;BME280;5284;50.446;7.904;2023-07-24T20:40:06;97462.84;;;17.28;100.00
10474;BME280;5284;50.446;7.904;2023-07-24T20:45:10;97452.75;;;17.09;100.00
10474;BME280;5284;50.446;7.904;2023-07-24T20:50:13;97450.66;;;17.04;100.00
10474;BME280;5284;50.446;7.904;2023-07-24T20:55:16;97448.25;;;16.88;100.00
10474;BME280;5284;50.446;7.904;2023-07-24T21:00:20;97449.00;;;16.76;100.00
10474;BME280;5284;50.446;7.904;2023-07-24T21:05:23;97446.63;;;16.67;100.00
10474;BME280;5284;50.446;7.904;2023-07-24T21:10:26;97450.72;;;16.56;100.00
10474;BME280;5284;50.446;7.904;2023-07-24T21:15:31;97447.88;;;16.43;100.00
10474;BME280;5284;50.446;7.904;2023-07-24T21:20:33;97461.69;;;16.34;100.00
10474;BME280;5284;50.446;7.904;2023-07-24T21:25:36;97460.31;;;16.23;100.00
10474;BME280;5284;50.446;7.904;2023-07-24T21:30:40;97459.75;;;16.13;100.00
10474;BME280;5284;50.446;7.904;2023-07-24T21:35:43;97460.53;;;16.07;100.00
10474;BME280;5284;50.446;7.904;2023-07-24T21:40:46;97464.56;;;15.97;100.00
10474;BME280;5284;50.446;7.904;2023-07-24T21:45:52;97455.59;;;15.90;100.00
10474;BME280;5284;50.446;7.904;2023-07-24T21:50:55;97463.22;;;15.86;100.00
10474;BME280;5284;50.446;7.904;2023-07-24T21:55:58;97455.88;;;15.80;100.00
10474;BME280;5284;50.446;7.904;2023-07-24T22:01:02;97444.44;;;15.72;100.00
10474;BME280;5284;50.446;7.904;2023-07-24T22:06:05;97453.25;;;15.66;100.00
10474;BME280;5284;50.446;7.904;2023-07-24T22:11:09;97435.00;;;15.61;100.00
10474;BME280;5284;50.446;7.904;2023-07-24T22:16:13;97451.41;;;15.52;100.00
10474;BME280;5284;50.446;7.904;2023-07-24T22:21:17;97457.41;;;15.54;100.00
10474;BME280;5284;50.446;7.904;2023-07-24T22:26:19;97445.38;;;15.50;100.00
10474;BME280;5284;50.446;7.904;2023-07-24T22:31:24;97440.75;;;15.44;100.00
10474;BME280;5284;50.446;7.904;2023-07-24T22:36:29;97427.88;;;15.39;100.00
10474;BME280;5284;50.446;7.904;2023-07-24T22:41:31;97434.91;;;15.40;100.00
10474;BME280;5284;50.446;7.904;2023-07-24T22:46:36;97441.53;;;15.38;100.00
10474;BME280;5284;50.446;7.904;2023-07-24T22:51:39;97454.09;;;15.37;100.00
10474;BME280;5284;50.446;7.904;2023-07-24T22:56:42;97454.00;;;15.45;100.00
10474;BME280;5284;50.446;7.904;2023-07-24T23:01:47;97458.19;;;15.48;100.00
10474;BME280;5284;50.446;7.904;2023-07-24T23:06:51;97459.47;;;15.52;100.00
10474;BME280;5284;50.446;7.904;2023-07-24T23:11:54;97455.38;;;15.56;100.00
10474;BME280;5284;50.446;7.904;2023-07-24T23:16:58;97455.75;;;15.53;100.00
10474;BME280;5284;50.446;7.904;2023-07-24T23:22:01;97459.47;;;15.52;100.00
10474;BME280;5284;50.446;7.904;2023-07-24T23:27:04;97463.38;;;15.49;100.00
10474;BME280;5284;50.446;7.904;2023-07-24T23:32:09;97469.56;;;15.50;100.00
10474;BME280;5284;50.446;7.904;2023-07-24T23:37:12;97467.34;;;15.53;100.00
10474;BME280;5284;50.446;7.904;2023-07-24T23:42:14;97474.03;;;15.57;100.00
10474;BME280;5284;50.446;7.904;2023-07-24T23:47:19;97470.47;;;15.57;100.00
10474;BME280;5284;50.446;7.904;2023-07-24T23:52:22;97465.09;;;15.57;100.00
10474;BME280;5284;50.446;7.904;2023-07-24T23:57:24;97465.75;;;15.59;100.00
